sensor_id;sensor_type;location;lat;lon;timestamp;P1;durP1;ratioP1;P2;durP2;ratioP2
31537;SDS011;18147;51.952;6.146;2024-03-17T00:00:42;24.02;;;8.75;;
31537;SDS011;18147;51.952;6.146;2024-03-17T00:03:08;18.08;;;8.73;;
31537;SDS011;18147;51.952;6.146;2024-03-17T00:05:34;26.10;;;9.23;;
31537;SDS011;18147;51.952;6.146;2024-03-17T00:08:00;26.35;;;8.32;;
31537;SDS011;18147;51.952;6.146;2024-03-17T00:10:26;17.98;;;7.53;;
31537;SDS011;18147;51.952;6.146;2024-03-17T00:12:52;14.20;;;6.85;;
31537;SDS011;18147;51.952;6.146;2024-03-17T00:15:17;12.77;;;6.45;;
31537;SDS011;18147;51.952;6.146;2024-03-17T00:17:43;17.83;;;6.18;;
31537;SDS011;18147;51.952;6.146;2024-03-17T00:20:09;10.90;;;6.05;;
31537;SDS011;18147;51.952;6.146;2024-03-17T00:22:43;15.25;;;6.30;;
31537;SDS011;18147;51.952;6.146;2024-03-17T00:25:11;13.40;;;5.80;;
31537;SDS011;18147;51.952;6.146;2024-03-17T00:27:36;16.42;;;6.10;;
31537;SDS011;18147;51.952;6.146;2024-03-17T00:30:05;12.05;;;5.53;;
31537;SDS011;18147;51.952;6.146;2024-03-17T00:32:37;11.10;;;6.43;;
31537;SDS011;18147;51.952;6.146;2024-03-17T00:35:03;9.27;;;5.80;;
31537;SDS011;18147;51.952;6.146;2024-03-17T00:37:29;14.05;;;6.68;;
31537;SDS011;18147;51.952;6.146;2024-03-17T00:39:55;10.50;;;6.07;;
31537;SDS011;18147;51.952;6.146;2024-03-17T00:42:20;12.55;;;5.40;;
31537;SDS011;18147;51.952;6.146;2024-03-17T00:44:45;17.48;;;6.13;;
31537;SDS011;18147;51.952;6.146;2024-03-17T00:47:11;16.73;;;6.05;;
31537;SDS011;18147;51.952;6.146;2024-03-17T00:49:37;14.25;;;6.60;;
31537;SDS011;18147;51.952;6.146;2024-03-17T00:52:02;14.77;;;5.93;;
31537;SDS011;18147;51.952;6.146;2024-03-17T00:54:28;14.85;;;5.63;;
31537;SDS011;18147;51.952;6.146;2024-03-17T00:56:53;11.40;;;5.15;;
31537;SDS011;18147;51.952;6.146;2024-03-17T00:59:19;13.70;;;5.88;;
31537;SDS011;18147;51.952;6.146;2024-03-17T01:01:44;13.30;;;5.60;;
31537;SDS011;18147;51.952;6.146;2024-03-17T01:04:10;11.68;;;5.80;;
31537;SDS011;18147;51.952;6.146;2024-03-17T01:06:35;8.90;;;5.63;;
31537;SDS011;18147;51.952;6.146;2024-03-17T01:09:01;9.07;;;5.53;;
31537;SDS011;18147;51.952;6.146;2024-03-17T01:11:26;12.98;;;5.70;;
31537;SDS011;18147;51.952;6.146;2024-03-17T01:13:52;12.20;;;5.53;;
31537;SDS011;18147;51.952;6.146;2024-03-17T01:16:17;12.02;;;5.20;;
31537;SDS011;18147;51.952;6.146;2024-03-17T01:18:43;11.50;;;4.95;;
31537;SDS011;18147;51.952;6.146;2024-03-17T01:21:10;15.38;;;5.63;;
31537;SDS011;18147;51.952;6.146;2024-03-17T01:23:36;12.57;;;5.15;;
31537;SDS011;18147;51.952;6.146;2024-03-17T01:26:02;9.80;;;4.97;;
31537;SDS011;18147;51.952;6.146;2024-03-17T01:28:27;12.52;;;5.40;;
31537;SDS011;18147;51.952;6.146;2024-03-17T01:30:53;14.98;;;5.57;;
31537;SDS011;18147;51.952;6.146;2024-03-17T01:33:18;14.63;;;5.38;;
31537;SDS011;18147;51.952;6.146;2024-03-17T01:35:43;7.72;;;5.20;;
31537;SDS011;18147;51.952;6.146;2024-03-17T01:38:09;9.95;;;4.78;;
31537;SDS011;18147;51.952;6.146;2024-03-17T01:40:37;9.93;;;4.82;;
31537;SDS011;18147;51.952;6.146;2024-03-17T01:43:03;14.68;;;5.38;;
31537;SDS011;18147;51.952;6.146;2024-03-17T01:45:29;10.18;;;5.35;;
31537;SDS011;18147;51.952;6.146;2024-03-17T01:47:58;12.32;;;5.97;;
31537;SDS011;18147;51.952;6.146;2024-03-17T01:50:29;11.95;;;5.60;;
31537;SDS011;18147;51.952;6.146;2024-03-17T01:52:58;14.27;;;5.63;;
31537;SDS011;18147;51.952;6.146;2024-03-17T01:55:26;15.90;;;5.78;;
31537;SDS011;18147;51.952;6.146;2024-03-17T01:57:53;14.70;;;7.10;;
31537;SDS011;18147;51.952;6.146;2024-03-17T02:00:19;9.85;;;5.75;;
31537;SDS011;18147;51.952;6.146;2024-03-17T02:02:45;11.68;;;5.90;;
31537;SDS011;18147;51.952;6.146;2024-03-17T02:05:10;16.25;;;7.57;;
31537;SDS011;18147;51.952;6.146;2024-03-17T02:07:36;16.00;;;7.63;;
31537;SDS011;18147;51.952;6.146;2024-03-17T02:10:02;13.98;;;6.35;;
31537;SDS011;18147;51.952;6.146;2024-03-17T02:12:31;14.73;;;6.97;;
31537;SDS011;18147;51.952;6.146;2024-03-17T02:14:57;13.75;;;6.90;;
31537;SDS011;18147;51.952;6.146;2024-03-17T02:17:23;13.38;;;7.20;;
31537;SDS011;18147;51.952;6.146;2024-03-17T02:19:50;21.17;;;7.32;;
31537;SDS011;18147;51.952;6.146;2024-03-17T02:22:16;15.65;;;6.53;;
31537;SDS011;18147;51.952;6.146;2024-03-17T02:24:42;15.13;;;7.53;;
31537;SDS011;18147;51.952;6.146;2024-03-17T02:27:07;10.48;;;6.50;;
31537;SDS011;18147;51.952;6.146;2024-03-17T02:29:34;14.52;;;7.88;;
31537;SDS011;18147;51.952;6.146;2024-03-17T02:32:01;13.20;;;7.50;;
31537;SDS011;18147;51.952;6.146;2024-03-17T02:34:35;12.48;;;7.10;;
31537;SDS011;18147;51.952;6.146;2024-03-17T02:37:02;9.75;;;6.72;;
31537;SDS011;18147;51.952;6.146;2024-03-17T02:39:29;12.55;;;6.35;;
31537;SDS011;18147;51.952;6.146;2024-03-17T02:42:07;30.52;;;7.10;;
31537;SDS011;18147;51.952;6.146;2024-03-17T02:44:35;13.27;;;7.03;;
31537;SDS011;18147;51.952;6.146;2024-03-17T02:47:02;13.15;;;6.55;;
31537;SDS011;18147;51.952;6.146;2024-03-17T02:49:33;18.13;;;6.85;;
31537;SDS011;18147;51.952;6.146;2024-03-17T02:52:04;13.90;;;7.20;;
31537;SDS011;18147;51.952;6.146;2024-03-17T02:54:34;18.70;;;8.20;;
31537;SDS011;18147;51.952;6.146;2024-03-17T02:57:04;21.35;;;9.55;;
31537;SDS011;18147;51.952;6.146;2024-03-17T02:59:31;14.77;;;8.02;;
31537;SDS011;18147;51.952;6.146;2024-03-17T03:01:57;16.60;;;8.15;;
31537;SDS011;18147;51.952;6.146;2024-03-17T03:04:23;14.95;;;7.95;;
31537;SDS011;18147;51.952;6.146;2024-03-17T03:06:49;19.63;;;8.50;;
31537;SDS011;18147;51.952;6.146;2024-03-17T03:09:14;14.40;;;8.48;;
31537;SDS011;18147;51.952;6.146;2024-03-17T03:11:45;16.13;;;8.32;;
31537;SDS011;18147;51.952;6.146;2024-03-17T03:14:11;19.65;;;9.38;;
31537;SDS011;18147;51.952;6.146;2024-03-17T03:16:37;18.05;;;8.48;;
31537;SDS011;18147;51.952;6.146;2024-03-17T03:19:03;15.32;;;8.13;;
31537;SDS011;18147;51.952;6.146;2024-03-17T03:21:30;14.90;;;8.27;;
31537;SDS011;18147;51.952;6.146;2024-03-17T03:23:56;14.63;;;7.97;;
31537;SDS011;18147;51.952;6.146;2024-03-17T03:26:21;15.63;;;8.90;;
31537;SDS011;18147;51.952;6.146;2024-03-17T03:28:48;20.90;;;10.68;;
31537;SDS011;18147;51.952;6.146;2024-03-17T03:31:14;16.73;;;8.48;;
31537;SDS011;18147;51.952;6.146;2024-03-17T03:33:40;13.23;;;8.75;;
31537;SDS011;18147;51.952;6.146;2024-03-17T03:38:36;16.15;;;8.90;;
31537;SDS011;18147;51.952;6.146;2024-03-17T03:43:33;21.85;;;9.48;;
31537;SDS011;18147;51.952;6.146;2024-03-17T03:45:59;15.43;;;8.18;;
31537;SDS011;18147;51.952;6.146;2024-03-17T03:48:26;18.20;;;8.55;;
31537;SDS011;18147;51.952;6.146;2024-03-17T03:50:51;13.18;;;7.10;;
31537;SDS011;18147;51.952;6.146;2024-03-17T03:53:17;14.23;;;8.73;;
31537;SDS011;18147;51.952;6.146;2024-03-17T03:55:42;15.55;;;8.18;;
31537;SDS011;18147;51.952;6.146;2024-03-17T03:58:08;19.85;;;8.23;;
31537;SDS011;18147;51.952;6.146;2024-03-17T04:00:33;17.45;;;10.15;;
31537;SDS011;18147;51.952;6.146;2024-03-17T04:02:59;19.73;;;10.18;;
31537;SDS011;18147;51.952;6.146;2024-03-17T04:05:26;13.35;;;8.93;;
31537;SDS011;18147;51.952;6.146;2024-03-17T04:07:52;16.23;;;10.15;;
31537;SDS011;18147;51.952;6.146;2024-03-17T04:10:18;20.77;;;10.38;;
31537;SDS011;18147;51.952;6.146;2024-03-17T04:12:46;19.25;;;11.00;;
31537;SDS011;18147;51.952;6.146;2024-03-17T04:15:12;16.83;;;10.73;;
31537;SDS011;18147;51.952;6.146;2024-03-17T04:17:39;18.52;;;10.90;;
31537;SDS011;18147;51.952;6.146;2024-03-17T04:20:05;17.33;;;11.25;;
31537;SDS011;18147;51.952;6.146;2024-03-17T04:22:33;19.30;;;10.95;;
31537;SDS011;18147;51.952;6.146;2024-03-17T04:24:59;18.60;;;11.63;;
31537;SDS011;18147;51.952;6.146;2024-03-17T04:27:25;21.75;;;12.95;;
31537;SDS011;18147;51.952;6.146;2024-03-17T04:29:54;21.10;;;11.93;;
31537;SDS011;18147;51.952;6.146;2024-03-17T04:32:21;19.25;;;11.60;;
31537;SDS011;18147;51.952;6.146;2024-03-17T04:34:47;20.58;;;12.23;;
31537;SDS011;18147;51.952;6.146;2024-03-17T04:37:12;19.25;;;12.35;;
31537;SDS011;18147;51.952;6.146;2024-03-17T04:39:39;20.95;;;13.05;;
31537;SDS011;18147;51.952;6.146;2024-03-17T04:42:05;19.52;;;12.68;;
31537;SDS011;18147;51.952;6.146;2024-03-17T04:44:32;21.52;;;13.60;;
31537;SDS011;18147;51.952;6.146;2024-03-17T04:46:57;22.55;;;13.70;;
31537;SDS011;18147;51.952;6.146;2024-03-17T04:49:23;26.30;;;13.85;;
31537;SDS011;18147;51.952;6.146;2024-03-17T04:51:48;19.10;;;13.25;;
31537;SDS011;18147;51.952;6.146;2024-03-17T04:54:13;27.92;;;15.20;;
31537;SDS011;18147;51.952;6.146;2024-03-17T04:56:39;20.38;;;14.10;;
31537;SDS011;18147;51.952;6.146;2024-03-17T04:59:04;20.63;;;14.40;;
31537;SDS011;18147;51.952;6.146;2024-03-17T05:01:30;24.13;;;15.10;;
31537;SDS011;18147;51.952;6.146;2024-03-17T05:04:00;26.38;;;16.00;;
31537;SDS011;18147;51.952;6.146;2024-03-17T05:06:28;27.55;;;15.73;;
31537;SDS011;18147;51.952;6.146;2024-03-17T05:08:53;27.00;;;16.98;;
31537;SDS011;18147;51.952;6.146;2024-03-17T05:11:19;29.52;;;17.40;;
31537;SDS011;18147;51.952;6.146;2024-03-17T05:13:45;29.33;;;16.75;;
31537;SDS011;18147;51.952;6.146;2024-03-17T05:16:10;32.55;;;18.55;;
31537;SDS011;18147;51.952;6.146;2024-03-17T05:18:36;27.67;;;19.23;;
31537;SDS011;18147;51.952;6.146;2024-03-17T05:21:04;32.08;;;19.15;;
31537;SDS011;18147;51.952;6.146;2024-03-17T05:23:31;38.25;;;22.92;;
31537;SDS011;18147;51.952;6.146;2024-03-17T05:25:58;42.53;;;22.20;;
31537;SDS011;18147;51.952;6.146;2024-03-17T05:28:25;41.83;;;22.83;;
31537;SDS011;18147;51.952;6.146;2024-03-17T05:30:51;40.85;;;23.33;;
31537;SDS011;18147;51.952;6.146;2024-03-17T05:33:17;35.80;;;22.35;;
31537;SDS011;18147;51.952;6.146;2024-03-17T05:35:50;41.15;;;22.42;;
31537;SDS011;18147;51.952;6.146;2024-03-17T05:38:26;42.42;;;21.67;;
31537;SDS011;18147;51.952;6.146;2024-03-17T05:41:05;43.28;;;22.33;;
31537;SDS011;18147;51.952;6.146;2024-03-17T05:43:32;37.63;;;21.88;;
31537;SDS011;18147;51.952;6.146;2024-03-17T05:46:01;33.78;;;21.48;;
31537;SDS011;18147;51.952;6.146;2024-03-17T05:48:27;40.83;;;23.13;;
31537;SDS011;18147;51.952;6.146;2024-03-17T05:50:53;46.47;;;21.67;;
31537;SDS011;18147;51.952;6.146;2024-03-17T05:53:19;35.78;;;21.40;;
31537;SDS011;18147;51.952;6.146;2024-03-17T05:55:46;35.35;;;21.15;;
31537;SDS011;18147;51.952;6.146;2024-03-17T05:58:11;34.17;;;20.75;;
31537;SDS011;18147;51.952;6.146;2024-03-17T06:00:38;40.30;;;20.75;;
31537;SDS011;18147;51.952;6.146;2024-03-17T06:03:04;37.13;;;19.77;;
31537;SDS011;18147;51.952;6.146;2024-03-17T06:05:31;41.00;;;21.10;;
31537;SDS011;18147;51.952;6.146;2024-03-17T06:07:58;38.17;;;21.10;;
31537;SDS011;18147;51.952;6.146;2024-03-17T06:10:23;35.38;;;20.08;;
31537;SDS011;18147;51.952;6.146;2024-03-17T06:12:49;38.58;;;21.55;;
31537;SDS011;18147;51.952;6.146;2024-03-17T06:15:16;34.03;;;19.85;;
31537;SDS011;18147;51.952;6.146;2024-03-17T06:17:41;39.45;;;20.75;;
31537;SDS011;18147;51.952;6.146;2024-03-17T06:20:07;36.55;;;21.58;;
31537;SDS011;18147;51.952;6.146;2024-03-17T06:22:36;41.33;;;21.30;;
31537;SDS011;18147;51.952;6.146;2024-03-17T06:25:01;35.45;;;20.48;;
31537;SDS011;18147;51.952;6.146;2024-03-17T06:27:27;35.30;;;20.45;;
31537;SDS011;18147;51.952;6.146;2024-03-17T06:29:54;37.75;;;20.17;;
31537;SDS011;18147;51.952;6.146;2024-03-17T06:32:20;32.47;;;19.30;;
31537;SDS011;18147;51.952;6.146;2024-03-17T06:34:45;38.95;;;20.45;;
31537;SDS011;18147;51.952;6.146;2024-03-17T06:37:11;44.65;;;21.27;;
31537;SDS011;18147;51.952;6.146;2024-03-17T06:39:37;35.00;;;19.77;;
31537;SDS011;18147;51.952;6.146;2024-03-17T06:42:02;33.78;;;20.02;;
31537;SDS011;18147;51.952;6.146;2024-03-17T06:44:28;35.88;;;18.88;;
31537;SDS011;18147;51.952;6.146;2024-03-17T06:46:55;37.22;;;18.92;;
31537;SDS011;18147;51.952;6.146;2024-03-17T06:49:21;32.88;;;18.90;;
31537;SDS011;18147;51.952;6.146;2024-03-17T06:51:46;27.90;;;17.58;;
31537;SDS011;18147;51.952;6.146;2024-03-17T06:54:13;33.17;;;17.70;;
31537;SDS011;18147;51.952;6.146;2024-03-17T06:56:38;29.02;;;16.58;;
31537;SDS011;18147;51.952;6.146;2024-03-17T06:59:05;28.25;;;17.27;;
31537;SDS011;18147;51.952;6.146;2024-03-17T07:01:30;27.75;;;16.55;;
31537;SDS011;18147;51.952;6.146;2024-03-17T07:03:56;30.75;;;15.10;;
31537;SDS011;18147;51.952;6.146;2024-03-17T07:06:21;21.90;;;13.93;;
31537;SDS011;18147;51.952;6.146;2024-03-17T07:08:46;26.67;;;14.57;;
31537;SDS011;18147;51.952;6.146;2024-03-17T07:11:12;23.45;;;13.90;;
31537;SDS011;18147;51.952;6.146;2024-03-17T07:13:37;24.77;;;14.95;;
31537;SDS011;18147;51.952;6.146;2024-03-17T07:16:07;27.00;;;14.68;;
31537;SDS011;18147;51.952;6.146;2024-03-17T07:18:33;26.42;;;14.32;;
31537;SDS011;18147;51.952;6.146;2024-03-17T07:20:59;24.30;;;14.32;;
31537;SDS011;18147;51.952;6.146;2024-03-17T07:23:26;24.48;;;11.80;;
31537;SDS011;18147;51.952;6.146;2024-03-17T07:25:55;21.70;;;12.27;;
31537;SDS011;18147;51.952;6.146;2024-03-17T07:28:22;19.30;;;11.55;;
31537;SDS011;18147;51.952;6.146;2024-03-17T07:30:48;17.35;;;11.73;;
31537;SDS011;18147;51.952;6.146;2024-03-17T07:33:21;20.15;;;10.95;;
31537;SDS011;18147;51.952;6.146;2024-03-17T07:35:51;21.35;;;11.13;;
31537;SDS011;18147;51.952;6.146;2024-03-17T07:38:17;18.92;;;11.18;;
31537;SDS011;18147;51.952;6.146;2024-03-17T07:40:44;14.93;;;10.63;;
31537;SDS011;18147;51.952;6.146;2024-03-17T07:43:11;18.80;;;10.95;;
31537;SDS011;18147;51.952;6.146;2024-03-17T07:45:37;16.45;;;10.27;;
31537;SDS011;18147;51.952;6.146;2024-03-17T07:48:03;21.63;;;11.73;;
31537;SDS011;18147;51.952;6.146;2024-03-17T07:50:28;19.05;;;9.43;;
31537;SDS011;18147;51.952;6.146;2024-03-17T07:52:53;14.38;;;8.82;;
31537;SDS011;18147;51.952;6.146;2024-03-17T07:55:19;15.48;;;9.25;;
31537;SDS011;18147;51.952;6.146;2024-03-17T07:57:44;15.05;;;9.15;;
31537;SDS011;18147;51.952;6.146;2024-03-17T08:00:10;14.45;;;10.07;;
31537;SDS011;18147;51.952;6.146;2024-03-17T08:02:41;17.27;;;10.05;;
31537;SDS011;18147;51.952;6.146;2024-03-17T08:05:10;16.20;;;10.13;;
31537;SDS011;18147;51.952;6.146;2024-03-17T08:07:35;12.98;;;9.65;;
31537;SDS011;18147;51.952;6.146;2024-03-17T08:10:01;17.38;;;10.13;;
31537;SDS011;18147;51.952;6.146;2024-03-17T08:12:28;14.80;;;10.30;;
31537;SDS011;18147;51.952;6.146;2024-03-17T08:14:54;18.27;;;10.05;;
31537;SDS011;18147;51.952;6.146;2024-03-17T08:17:19;16.67;;;10.05;;
31537;SDS011;18147;51.952;6.146;2024-03-17T08:19:45;14.75;;;9.52;;
31537;SDS011;18147;51.952;6.146;2024-03-17T08:22:10;16.90;;;10.48;;
31537;SDS011;18147;51.952;6.146;2024-03-17T08:24:36;15.95;;;9.38;;
31537;SDS011;18147;51.952;6.146;2024-03-17T08:27:01;26.83;;;9.90;;
31537;SDS011;18147;51.952;6.146;2024-03-17T08:29:27;13.57;;;9.23;;
31537;SDS011;18147;51.952;6.146;2024-03-17T08:31:52;16.92;;;9.82;;
31537;SDS011;18147;51.952;6.146;2024-03-17T08:34:18;14.45;;;10.15;;
31537;SDS011;18147;51.952;6.146;2024-03-17T08:36:43;13.95;;;9.48;;
31537;SDS011;18147;51.952;6.146;2024-03-17T08:39:09;14.50;;;9.02;;
31537;SDS011;18147;51.952;6.146;2024-03-17T08:41:36;15.00;;;9.20;;
31537;SDS011;18147;51.952;6.146;2024-03-17T08:44:01;17.00;;;8.32;;
31537;SDS011;18147;51.952;6.146;2024-03-17T08:46:27;11.50;;;8.30;;
31537;SDS011;18147;51.952;6.146;2024-03-17T08:48:52;18.10;;;9.27;;
31537;SDS011;18147;51.952;6.146;2024-03-17T08:51:18;15.93;;;8.95;;
31537;SDS011;18147;51.952;6.146;2024-03-17T08:53:43;15.63;;;8.85;;
31537;SDS011;18147;51.952;6.146;2024-03-17T08:56:09;15.02;;;9.82;;
31537;SDS011;18147;51.952;6.146;2024-03-17T08:58:34;11.18;;;8.77;;
31537;SDS011;18147;51.952;6.146;2024-03-17T09:01:03;13.70;;;9.43;;
31537;SDS011;18147;51.952;6.146;2024-03-17T09:03:32;18.25;;;9.55;;
31537;SDS011;18147;51.952;6.146;2024-03-17T09:05:59;14.13;;;9.02;;
31537;SDS011;18147;51.952;6.146;2024-03-17T09:08:24;14.30;;;9.18;;
31537;SDS011;18147;51.952;6.146;2024-03-17T09:10:51;15.10;;;9.60;;
31537;SDS011;18147;51.952;6.146;2024-03-17T09:13:21;17.55;;;9.20;;
31537;SDS011;18147;51.952;6.146;2024-03-17T09:15:52;11.00;;;8.93;;
31537;SDS011;18147;51.952;6.146;2024-03-17T09:18:27;13.35;;;9.05;;
31537;SDS011;18147;51.952;6.146;2024-03-17T09:21:00;11.40;;;7.88;;
31537;SDS011;18147;51.952;6.146;2024-03-17T09:23:29;14.38;;;8.95;;
31537;SDS011;18147;51.952;6.146;2024-03-17T09:25:55;14.50;;;8.55;;
31537;SDS011;18147;51.952;6.146;2024-03-17T09:28:26;15.57;;;9.18;;
31537;SDS011;18147;51.952;6.146;2024-03-17T09:30:52;16.80;;;9.98;;
31537;SDS011;18147;51.952;6.146;2024-03-17T09:33:21;12.80;;;8.88;;
31537;SDS011;18147;51.952;6.146;2024-03-17T09:35:57;11.65;;;9.00;;
31537;SDS011;18147;51.952;6.146;2024-03-17T09:38:25;12.13;;;8.85;;
31537;SDS011;18147;51.952;6.146;2024-03-17T09:40:51;12.73;;;8.88;;
31537;SDS011;18147;51.952;6.146;2024-03-17T09:43:21;11.77;;;8.73;;
31537;SDS011;18147;51.952;6.146;2024-03-17T09:45:48;12.20;;;8.52;;
31537;SDS011;18147;51.952;6.146;2024-03-17T09:48:14;15.07;;;9.93;;
31537;SDS011;18147;51.952;6.146;2024-03-17T09:50:44;15.93;;;9.07;;
31537;SDS011;18147;51.952;6.146;2024-03-17T09:53:40;11.57;;;9.35;;
31537;SDS011;18147;51.952;6.146;2024-03-17T09:56:08;16.08;;;10.15;;
31537;SDS011;18147;51.952;6.146;2024-03-17T09:58:38;16.80;;;9.95;;
31537;SDS011;18147;51.952;6.146;2024-03-17T10:01:04;16.10;;;9.82;;
31537;SDS011;18147;51.952;6.146;2024-03-17T10:03:47;13.23;;;9.35;;
31537;SDS011;18147;51.952;6.146;2024-03-17T10:06:18;15.40;;;9.75;;
31537;SDS011;18147;51.952;6.146;2024-03-17T10:11:12;16.55;;;9.48;;
31537;SDS011;18147;51.952;6.146;2024-03-17T10:13:39;15.82;;;10.23;;
31537;SDS011;18147;51.952;6.146;2024-03-17T10:16:04;11.95;;;9.88;;
31537;SDS011;18147;51.952;6.146;2024-03-17T10:18:30;15.73;;;10.48;;
31537;SDS011;18147;51.952;6.146;2024-03-17T10:20:56;17.80;;;11.52;;
31537;SDS011;18147;51.952;6.146;2024-03-17T10:23:23;17.05;;;11.40;;
31537;SDS011;18147;51.952;6.146;2024-03-17T10:25:49;17.35;;;11.48;;
31537;SDS011;18147;51.952;6.146;2024-03-17T10:28:15;15.38;;;11.40;;
31537;SDS011;18147;51.952;6.146;2024-03-17T10:30:42;13.35;;;10.35;;
31537;SDS011;18147;51.952;6.146;2024-03-17T10:33:22;16.75;;;10.60;;
31537;SDS011;18147;51.952;6.146;2024-03-17T10:35:58;18.45;;;12.18;;
31537;SDS011;18147;51.952;6.146;2024-03-17T10:38:27;15.13;;;10.73;;
31537;SDS011;18147;51.952;6.146;2024-03-17T10:40:53;18.25;;;10.55;;
31537;SDS011;18147;51.952;6.146;2024-03-17T10:43:19;21.70;;;11.25;;
31537;SDS011;18147;51.952;6.146;2024-03-17T10:45:51;14.60;;;9.82;;
31537;SDS011;18147;51.952;6.146;2024-03-17T10:48:16;15.43;;;10.52;;
31537;SDS011;18147;51.952;6.146;2024-03-17T10:50:46;16.50;;;10.45;;
31537;SDS011;18147;51.952;6.146;2024-03-17T10:53:13;14.65;;;10.68;;
31537;SDS011;18147;51.952;6.146;2024-03-17T10:55:45;18.00;;;11.25;;
31537;SDS011;18147;51.952;6.146;2024-03-17T10:58:30;16.63;;;10.73;;
31537;SDS011;18147;51.952;6.146;2024-03-17T11:01:06;14.52;;;10.70;;
31537;SDS011;18147;51.952;6.146;2024-03-17T11:03:36;15.43;;;10.90;;
31537;SDS011;18147;51.952;6.146;2024-03-17T11:06:03;18.48;;;10.50;;
31537;SDS011;18147;51.952;6.146;2024-03-17T11:08:30;14.80;;;10.02;;
31537;SDS011;18147;51.952;6.146;2024-03-17T11:10:58;20.65;;;10.75;;
31537;SDS011;18147;51.952;6.146;2024-03-17T11:13:31;17.45;;;10.30;;
31537;SDS011;18147;51.952;6.146;2024-03-17T11:15:57;14.40;;;10.32;;
31537;SDS011;18147;51.952;6.146;2024-03-17T11:18:36;16.25;;;9.65;;
31537;SDS011;18147;51.952;6.146;2024-03-17T11:21:06;13.52;;;9.73;;
31537;SDS011;18147;51.952;6.146;2024-03-17T11:23:54;16.67;;;11.25;;
31537;SDS011;18147;51.952;6.146;2024-03-17T11:26:33;17.05;;;10.15;;
31537;SDS011;18147;51.952;6.146;2024-03-17T11:29:00;13.88;;;9.73;;
31537;SDS011;18147;51.952;6.146;2024-03-17T11:31:31;16.83;;;10.98;;
31537;SDS011;18147;51.952;6.146;2024-03-17T11:36:55;16.38;;;11.05;;
31537;SDS011;18147;51.952;6.146;2024-03-17T11:42:23;17.27;;;11.07;;
31537;SDS011;18147;51.952;6.146;2024-03-17T11:45:06;14.30;;;10.65;;
31537;SDS011;18147;51.952;6.146;2024-03-17T11:47:41;13.25;;;10.15;;
31537;SDS011;18147;51.952;6.146;2024-03-17T11:50:08;13.40;;;9.05;;
31537;SDS011;18147;51.952;6.146;2024-03-17T11:52:35;13.02;;;9.15;;
31537;SDS011;18147;51.952;6.146;2024-03-17T11:55:02;14.02;;;9.23;;
31537;SDS011;18147;51.952;6.146;2024-03-17T11:57:28;19.40;;;11.50;;
31537;SDS011;18147;51.952;6.146;2024-03-17T11:59:54;23.92;;;13.98;;
31537;SDS011;18147;51.952;6.146;2024-03-17T12:02:23;20.67;;;12.07;;
31537;SDS011;18147;51.952;6.146;2024-03-17T12:04:52;14.95;;;11.65;;
31537;SDS011;18147;51.952;6.146;2024-03-17T12:07:19;16.70;;;10.75;;
31537;SDS011;18147;51.952;6.146;2024-03-17T12:09:52;18.40;;;10.93;;
31537;SDS011;18147;51.952;6.146;2024-03-17T12:12:25;14.93;;;9.60;;
31537;SDS011;18147;51.952;6.146;2024-03-17T12:15:01;12.73;;;9.02;;
31537;SDS011;18147;51.952;6.146;2024-03-17T12:17:28;17.65;;;8.85;;
31537;SDS011;18147;51.952;6.146;2024-03-17T12:19:53;19.70;;;10.10;;
31537;SDS011;18147;51.952;6.146;2024-03-17T12:22:21;16.92;;;9.38;;
31537;SDS011;18147;51.952;6.146;2024-03-17T12:24:52;13.60;;;9.83;;
31537;SDS011;18147;51.952;6.146;2024-03-17T12:27:20;16.63;;;9.93;;
31537;SDS011;18147;51.952;6.146;2024-03-17T12:29:52;19.92;;;10.27;;
31537;SDS011;18147;51.952;6.146;2024-03-17T12:32:19;17.40;;;8.48;;
31537;SDS011;18147;51.952;6.146;2024-03-17T12:34:49;18.27;;;9.20;;
31537;SDS011;18147;51.952;6.146;2024-03-17T12:37:16;14.95;;;8.98;;
31537;SDS011;18147;51.952;6.146;2024-03-17T12:39:43;14.27;;;9.05;;
31537;SDS011;18147;51.952;6.146;2024-03-17T12:42:10;17.50;;;8.57;;
31537;SDS011;18147;51.952;6.146;2024-03-17T12:44:39;14.60;;;8.40;;
31537;SDS011;18147;51.952;6.146;2024-03-17T12:47:13;16.38;;;8.15;;
31537;SDS011;18147;51.952;6.146;2024-03-17T12:49:44;17.85;;;9.02;;
31537;SDS011;18147;51.952;6.146;2024-03-17T12:52:17;13.10;;;8.35;;
31537;SDS011;18147;51.952;6.146;2024-03-17T12:54:42;15.52;;;8.15;;
31537;SDS011;18147;51.952;6.146;2024-03-17T12:59:59;16.20;;;8.77;;
31537;SDS011;18147;51.952;6.146;2024-03-17T13:02:43;15.82;;;7.97;;
31537;SDS011;18147;51.952;6.146;2024-03-17T13:07:45;18.55;;;9.43;;
31537;SDS011;18147;51.952;6.146;2024-03-17T13:10:21;14.27;;;8.80;;
31537;SDS011;18147;51.952;6.146;2024-03-17T13:12:47;18.13;;;9.02;;
31537;SDS011;18147;51.952;6.146;2024-03-17T13:15:13;14.95;;;8.35;;
31537;SDS011;18147;51.952;6.146;2024-03-17T13:17:41;17.48;;;8.35;;
31537;SDS011;18147;51.952;6.146;2024-03-17T13:20:12;16.00;;;8.13;;
31537;SDS011;18147;51.952;6.146;2024-03-17T13:22:40;14.95;;;8.43;;
31537;SDS011;18147;51.952;6.146;2024-03-17T13:25:16;16.52;;;8.93;;
31537;SDS011;18147;51.952;6.146;2024-03-17T13:27:48;25.17;;;9.65;;
31537;SDS011;18147;51.952;6.146;2024-03-17T13:30:15;21.58;;;8.95;;
31537;SDS011;18147;51.952;6.146;2024-03-17T13:32:42;15.68;;;8.60;;
31537;SDS011;18147;51.952;6.146;2024-03-17T13:35:17;15.45;;;7.80;;
31537;SDS011;18147;51.952;6.146;2024-03-17T13:37:48;16.02;;;7.50;;
31537;SDS011;18147;51.952;6.146;2024-03-17T13:40:15;13.13;;;7.65;;
31537;SDS011;18147;51.952;6.146;2024-03-17T13:42:44;10.60;;;7.05;;
31537;SDS011;18147;51.952;6.146;2024-03-17T13:45:10;17.08;;;8.48;;
31537;SDS011;18147;51.952;6.146;2024-03-17T13:47:37;13.82;;;7.88;;
31537;SDS011;18147;51.952;6.146;2024-03-17T13:50:03;13.90;;;7.88;;
31537;SDS011;18147;51.952;6.146;2024-03-17T13:52:31;17.10;;;8.50;;
31537;SDS011;18147;51.952;6.146;2024-03-17T13:54:57;15.60;;;7.90;;
31537;SDS011;18147;51.952;6.146;2024-03-17T13:57:24;15.55;;;7.60;;
31537;SDS011;18147;51.952;6.146;2024-03-17T13:59:50;12.15;;;7.10;;
31537;SDS011;18147;51.952;6.146;2024-03-17T14:02:17;13.98;;;7.70;;
31537;SDS011;18147;51.952;6.146;2024-03-17T14:04:43;11.45;;;7.68;;
31537;SDS011;18147;51.952;6.146;2024-03-17T14:07:09;15.02;;;7.97;;
31537;SDS011;18147;51.952;6.146;2024-03-17T14:09:35;16.55;;;8.18;;
31537;SDS011;18147;51.952;6.146;2024-03-17T14:12:00;12.55;;;7.35;;
31537;SDS011;18147;51.952;6.146;2024-03-17T14:14:26;17.20;;;7.95;;
31537;SDS011;18147;51.952;6.146;2024-03-17T14:16:51;18.85;;;8.63;;
31537;SDS011;18147;51.952;6.146;2024-03-17T14:19:16;16.85;;;7.40;;
31537;SDS011;18147;51.952;6.146;2024-03-17T14:21:42;11.38;;;7.05;;
31537;SDS011;18147;51.952;6.146;2024-03-17T14:24:07;11.98;;;7.90;;
31537;SDS011;18147;51.952;6.146;2024-03-17T14:26:34;13.93;;;8.40;;
31537;SDS011;18147;51.952;6.146;2024-03-17T14:29:02;16.65;;;8.45;;
31537;SDS011;18147;51.952;6.146;2024-03-17T14:31:31;14.27;;;7.32;;
31537;SDS011;18147;51.952;6.146;2024-03-17T14:33:59;14.45;;;7.40;;
31537;SDS011;18147;51.952;6.146;2024-03-17T14:36:25;14.70;;;7.70;;
31537;SDS011;18147;51.952;6.146;2024-03-17T14:38:53;14.57;;;8.23;;
31537;SDS011;18147;51.952;6.146;2024-03-17T14:41:19;12.82;;;8.82;;
31537;SDS011;18147;51.952;6.146;2024-03-17T14:43:44;12.82;;;8.38;;
31537;SDS011;18147;51.952;6.146;2024-03-17T14:46:11;14.68;;;8.73;;
31537;SDS011;18147;51.952;6.146;2024-03-17T14:48:39;17.98;;;8.70;;